Time;durP1;ratioP1;P1;durP2;ratioP2;P2;SDS_P1;SDS_P2;PMS_P1;PMS_P2;Temp;Humidity;BMP_temperature;BMP_pressure;BME280_temperature;BME280_humidity;BME280_pressure;Samples;Min_cycle;Max_cycle;Signal;HPM_P1;HPM_P2
2021/08/29 00:01:24;;;;;;;9.07;2.13;;;17.90;99.90;;;;;;5080584;28;20028;-84
2021/08/29 00:03:49;;;;;;;5.90;1.85;;;17.90;99.90;;;;;;5079352;28;20020;-84
2021/08/29 00:06:15;;;;;;;5.90;2.15;;;17.90;99.90;;;;;;5072843;28;20059;-85
2021/08/29 00:08:41;;;;;;;7.22;2.25;;;17.90;99.90;;;;;;5078406;28;20103;-84
2021/08/29 00:11:07;;;;;;;8.48;2.13;;;17.80;99.90;;;;;;5077716;28;20024;-84
2021/08/29 00:13:32;;;;;;;5.78;2.05;;;17.80;99.90;;;;;;5080293;28;20235;-84
2021/08/29 00:15:59;;;;;;;6.90;1.98;;;17.80;99.90;;;;;;5077662;28;20032;-84
2021/08/29 00:18:24;;;;;;;6.63;2.10;;;17.70;99.90;;;;;;5078609;28;20096;-84
2021/08/29 00:20:50;;;;;;;5.78;2.30;;;17.70;99.90;;;;;;5068052;28;20025;-84
2021/08/29 00:23:16;;;;;;;5.93;2.03;;;17.70;99.90;;;;;;5072672;28;20012;-84
2021/08/29 00:25:41;;;;;;;6.60;2.30;;;17.70;99.90;;;;;;5073786;28;20025;-84
2021/08/29 00:28:07;;;;;;;7.43;1.95;;;17.70;99.90;;;;;;5069971;28;20031;-84
2021/08/29 00:30:33;;;;;;;6.00;2.03;;;17.60;99.90;;;;;;5083321;28;20056;-84
2021/08/29 00:32:59;;;;;;;7.22;2.13;;;17.60;99.90;;;;;;5084163;28;20202;-84
2021/08/29 00:35:24;;;;;;;11.95;2.40;;;17.60;99.90;;;;;;5079630;28;20025;-84
2021/08/29 00:37:50;;;;;;;6.72;2.58;;;17.60;99.90;;;;;;5070832;28;20082;-84
2021/08/29 00:40:17;;;;;;;4.50;2.20;;;17.60;99.90;;;;;;5081681;28;20312;-84
2021/08/29 00:42:44;;;;;;;7.55;2.22;;;17.60;99.90;;;;;;5079441;28;20016;-84
2021/08/29 00:45:10;;;;;;;8.00;2.10;;;17.50;99.90;;;;;;5074382;28;20036;-84
2021/08/29 00:47:37;;;;;;;6.30;2.40;;;17.50;99.90;;;;;;5083547;28;20020;-84
2021/08/29 00:50:04;;;;;;;7.05;2.30;;;17.50;99.90;;;;;;5083734;28;20028;-84
2021/08/29 00:52:30;;;;;;;9.20;2.58;;;17.50;99.90;;;;;;5068453;28;20209;-84
2021/08/29 00:54:55;;;;;;;7.38;2.40;;;17.40;99.90;;;;;;5080984;28;20104;-84
2021/08/29 00:57:21;;;;;;;8.73;3.35;;;17.40;99.90;;;;;;5075073;28;20190;-84
2021/08/29 00:59:47;;;;;;;10.98;3.63;;;17.40;99.90;;;;;;5080793;28;20243;-84
2021/08/29 01:02:16;;;;;;;9.60;3.75;;;17.40;99.90;;;;;;5084141;28;20031;-84
2021/08/29 01:05:00;;;;;;;11.52;5.22;;;17.40;99.90;;;;;;5079215;28;20031;-84
2021/08/29 01:07:35;;;;;;;14.70;4.43;;;17.40;99.90;;;;;;5080817;28;20043;-84
2021/08/29 01:10:06;;;;;;;8.38;3.60;;;17.40;99.90;;;;;;5083137;28;20016;-84
2021/08/29 01:12:33;;;;;;;12.18;3.50;;;17.40;99.90;;;;;;5082642;28;20067;-84
2021/08/29 01:15:02;;;;;;;11.38;3.53;;;17.30;99.90;;;;;;5080514;28;20039;-84
2021/08/29 01:17:31;;;;;;;11.40;3.05;;;17.20;99.90;;;;;;5075878;28;20113;-84
2021/08/29 01:20:23;;;;;;;9.32;3.65;;;17.30;99.90;;;;;;5059329;28;20146;-84
2021/08/29 01:22:50;;;;;;;9.02;3.10;;;17.30;99.90;;;;;;5069611;28;20257;-84
2021/08/29 01:25:26;;;;;;;7.90;3.22;;;17.30;99.90;;;;;;5068138;28;20036;-84
2021/08/29 01:28:04;;;;;;;9.32;2.97;;;17.30;99.90;;;;;;5069485;28;20028;-84
2021/08/29 01:30:30;;;;;;;8.23;3.42;;;17.30;99.90;;;;;;5082365;28;20063;-85
2021/08/29 01:32:58;;;;;;;8.70;2.65;;;17.30;99.90;;;;;;5082938;28;20324;-84
2021/08/29 01:35:25;;;;;;;7.90;3.08;;;17.20;99.90;;;;;;5079496;28;20034;-85
2021/08/29 01:37:51;;;;;;;6.68;2.63;;;17.20;99.90;;;;;;5065015;28;20223;-84
2021/08/29 01:40:17;;;;;;;4.95;2.60;;;17.20;99.90;;;;;;5082431;28;20032;-84
2021/08/29 01:42:44;;;;;;;8.25;2.70;;;17.20;99.90;;;;;;5082562;28;20027;-84
2021/08/29 01:45:10;;;;;;;10.55;2.55;;;17.20;99.90;;;;;;5082842;28;20145;-84
2021/08/29 01:47:36;;;;;;;7.28;2.88;;;17.20;99.90;;;;;;5068912;28;20265;-84
2021/08/29 01:50:03;;;;;;;8.32;2.88;;;17.20;99.90;;;;;;5079700;28;20032;-84
2021/08/29 01:52:29;;;;;;;7.32;2.75;;;17.20;99.90;;;;;;5078114;28;20545;-84
2021/08/29 01:54:54;;;;;;;9.90;2.80;;;17.20;99.90;;;;;;5083041;28;20028;-84
2021/08/29 01:57:20;;;;;;;6.57;2.60;;;17.20;99.90;;;;;;5079626;28;20028;-84
2021/08/29 01:59:46;;;;;;;7.10;2.90;;;17.10;99.90;;;;;;5077634;28;20028;-84
2021/08/29 02:02:13;;;;;;;6.18;2.80;;;17.10;99.90;;;;;;5082097;28;20044;-84
2021/08/29 02:04:41;;;;;;;9.02;2.67;;;17.10;99.90;;;;;;5074800;28;20040;-84
2021/08/29 02:07:07;;;;;;;7.15;2.55;;;17.00;99.90;;;;;;5079804;28;20185;-84
2021/08/29 02:09:34;;;;;;;6.75;2.97;;;17.00;99.90;;;;;;5081199;28;20021;-84
2021/08/29 02:12:01;;;;;;;7.13;2.90;;;17.00;99.90;;;;;;5081881;28;20025;-84
2021/08/29 02:14:32;;;;;;;12.55;3.20;;;16.90;99.90;;;;;;5079420;28;20036;-84
2021/08/29 02:16:59;;;;;;;6.60;2.50;;;17.00;99.90;;;;;;5078055;28;20500;-84
2021/08/29 02:19:30;;;;;;;11.10;3.30;;;16.90;99.90;;;;;;5084610;28;20058;-85
2021/08/29 02:21:56;;;;;;;6.75;2.78;;;16.90;99.90;;;;;;5076761;28;20042;-85
2021/08/29 02:24:24;;;;;;;8.55;2.88;;;16.90;99.90;;;;;;5079974;28;20036;-84
2021/08/29 02:26:51;;;;;;;10.75;3.42;;;16.90;99.90;;;;;;5084578;28;20017;-84
2021/08/29 02:29:18;;;;;;;7.60;2.95;;;16.90;99.90;;;;;;5088751;28;20035;-85
2021/08/29 02:31:47;;;;;;;7.15;2.65;;;16.90;99.90;;;;;;5109734;28;20063;-85
2021/08/29 02:34:13;;;;;;;9.10;3.00;;;16.90;99.90;;;;;;5107965;28;20050;-85
2021/08/29 02:36:41;;;;;;;10.23;3.25;;;16.90;99.90;;;;;;5106156;28;20024;-84
2021/08/29 02:39:07;;;;;;;6.35;2.65;;;16.90;99.90;;;;;;5089667;28;20012;-85
2021/08/29 02:41:35;;;;;;;8.63;2.90;;;16.90;99.90;;;;;;5100929;28;20024;-84
2021/08/29 02:44:02;;;;;;;8.70;2.97;;;16.80;99.90;;;;;;5085778;28;20087;-85
2021/08/29 02:46:28;;;;;;;8.63;3.15;;;16.80;99.90;;;;;;5102464;28;20016;-84
2021/08/29 02:48:54;;;;;;;10.00;3.22;;;16.80;99.90;;;;;;5098112;28;20093;-84
2021/08/29 02:51:23;;;;;;;6.45;2.92;;;16.80;99.90;;;;;;5098091;28;20024;-84
2021/08/29 02:53:49;;;;;;;8.27;2.80;;;16.70;99.90;;;;;;5096025;28;20023;-85
2021/08/29 02:56:18;;;;;;;10.18;3.83;;;16.70;99.90;;;;;;5089001;28;20099;-84
2021/08/29 02:58:45;;;;;;;11.65;3.08;;;16.70;99.90;;;;;;5100273;28;20032;-84
2021/08/29 03:01:11;;;;;;;7.97;3.05;;;16.70;99.90;;;;;;5083570;28;20023;-84
2021/08/29 03:03:37;;;;;;;9.30;3.10;;;16.60;99.90;;;;;;5098890;28;20019;-84
2021/08/29 03:06:03;;;;;;;10.20;2.92;;;16.60;99.90;;;;;;5100838;28;20028;-84
2021/08/29 03:08:29;;;;;;;6.63;2.78;;;16.60;99.90;;;;;;5100825;28;20215;-84
2021/08/29 03:10:55;;;;;;;7.65;3.40;;;16.60;99.90;;;;;;5096256;28;20024;-84
2021/08/29 03:13:21;;;;;;;7.88;2.83;;;16.60;99.90;;;;;;5101838;28;20091;-84
2021/08/29 03:15:47;;;;;;;9.82;3.58;;;16.60;99.90;;;;;;5096192;28;20077;-84
2021/08/29 03:18:13;;;;;;;10.20;3.17;;;16.60;99.90;;;;;;5100204;28;20032;-84
2021/08/29 03:20:41;;;;;;;7.35;3.10;;;16.60;99.90;;;;;;5090720;28;20243;-84
2021/08/29 03:23:07;;;;;;;9.98;3.50;;;16.60;99.90;;;;;;5095924;28;20016;-84
2021/08/29 03:25:33;;;;;;;9.40;3.10;;;16.60;99.90;;;;;;5101573;28;20027;-84
2021/08/29 03:27:59;;;;;;;9.48;3.13;;;16.50;99.90;;;;;;5100783;28;20036;-84
2021/08/29 03:30:25;;;;;;;7.40;3.22;;;16.50;99.90;;;;;;5091223;28;20043;-84
2021/08/29 03:32:51;;;;;;;9.45;3.58;;;16.50;99.90;;;;;;5081302;28;20021;-85
2021/08/29 03:35:18;;;;;;;7.97;3.45;;;16.50;99.90;;;;;;5080147;28;20042;-84
2021/08/29 03:37:44;;;;;;;8.57;3.38;;;16.50;99.90;;;;;;5078090;28;20021;-84
2021/08/29 03:40:11;;;;;;;8.93;2.83;;;16.50;99.90;;;;;;5076639;28;20519;-84
2021/08/29 03:42:38;;;;;;;11.82;3.47;;;16.50;99.90;;;;;;5081040;28;20265;-84
2021/08/29 03:45:06;;;;;;;9.70;3.13;;;16.40;99.90;;;;;;5077555;28;20362;-84
2021/08/29 03:47:33;;;;;;;6.80;3.25;;;16.40;99.90;;;;;;5074524;28;20024;-84
2021/08/29 03:49:58;;;;;;;10.02;3.08;;;16.40;99.90;;;;;;5080608;28;20025;-84
2021/08/29 03:52:24;;;;;;;10.40;3.42;;;16.40;99.90;;;;;;5078533;28;20092;-84
2021/08/29 03:54:51;;;;;;;10.57;2.90;;;16.30;99.90;;;;;;5076798;28;20081;-84
2021/08/29 03:57:16;;;;;;;9.40;3.50;;;16.30;99.90;;;;;;5076965;28;20487;-84
2021/08/29 03:59:42;;;;;;;15.02;3.53;;;16.30;99.90;;;;;;5077410;28;20020;-84
2021/08/29 04:02:09;;;;;;;8.68;3.13;;;16.20;99.90;;;;;;5078607;28;20146;-84
2021/08/29 04:04:35;;;;;;;9.23;3.53;;;16.20;99.90;;;;;;5061127;28;20173;-84
2021/08/29 04:07:05;;;;;;;8.05;3.10;;;16.10;99.90;;;;;;5076704;28;20116;-84
2021/08/29 04:09:32;;;;;;;9.90;3.38;;;16.20;99.90;;;;;;5074545;28;20024;-84
2021/08/29 04:11:59;;;;;;;11.15;3.35;;;16.20;99.90;;;;;;5072658;28;20130;-84
2021/08/29 04:14:26;;;;;;;9.30;3.42;;;16.10;99.90;;;;;;5078686;28;20040;-84
2021/08/29 04:16:55;;;;;;;9.45;2.85;;;16.10;99.90;;;;;;5079240;28;20043;-84
2021/08/29 04:19:22;;;;;;;10.43;3.13;;;16.10;99.90;;;;;;5077884;28;20031;-84
2021/08/29 04:21:48;;;;;;;6.57;3.13;;;16.10;99.90;;;;;;5061720;28;20017;-84
2021/08/29 04:24:14;;;;;;;8.75;2.95;;;16.00;99.90;;;;;;5077711;28;20016;-84
2021/08/29 04:26:40;;;;;;;9.93;3.60;;;16.00;99.90;;;;;;5079757;28;20024;-84
2021/08/29 04:29:06;;;;;;;8.48;3.28;;;16.00;99.90;;;;;;5078178;28;20035;-84
2021/08/29 04:31:33;;;;;;;10.23;3.30;;;16.00;99.90;;;;;;5079155;28;20040;-85
2021/08/29 04:34:05;;;;;;;10.90;3.22;;;15.90;99.90;;;;;;5061354;28;20015;-84
2021/08/29 04:36:31;;;;;;;9.13;3.08;;;15.90;99.90;;;;;;5079579;28;20100;-84
2021/08/29 04:39:01;;;;;;;9.05;3.17;;;15.90;99.90;;;;;;5076567;28;20051;-84
2021/08/29 04:41:27;;;;;;;7.35;3.33;;;15.90;99.90;;;;;;5079491;28;20021;-84
2021/08/29 04:43:52;;;;;;;10.15;3.20;;;15.90;99.90;;;;;;5074232;28;20027;-84
2021/08/29 04:46:18;;;;;;;8.70;3.08;;;15.90;99.90;;;;;;5076521;28;20082;-84
2021/08/29 04:48:44;;;;;;;10.05;3.67;;;15.90;99.90;;;;;;5069444;28;20020;-84
2021/08/29 04:51:09;;;;;;;10.48;3.78;;;15.80;99.90;;;;;;5074412;28;20033;-84
2021/08/29 04:53:35;;;;;;;11.05;3.78;;;15.90;99.90;;;;;;5073580;28;20028;-84
2021/08/29 04:56:01;;;;;;;8.88;3.38;;;15.90;99.90;;;;;;5063047;28;20461;-84
2021/08/29 04:58:26;;;;;;;9.45;3.60;;;15.90;99.90;;;;;;5067767;28;20236;-84
2021/08/29 05:00:52;;;;;;;7.68;3.20;;;15.90;99.90;;;;;;5076368;28;20047;-84
2021/08/29 05:03:18;;;;;;;12.73;3.90;;;15.90;99.90;;;;;;5073627;28;20031;-88
2021/08/29 05:05:43;;;;;;;10.57;3.53;;;15.90;99.90;;;;;;5076855;28;20096;-85
2021/08/29 05:08:09;;;;;;;8.80;3.92;;;15.90;99.90;;;;;;5074635;28;20091;-84
2021/08/29 05:10:35;;;;;;;11.35;3.78;;;15.80;99.90;;;;;;5074575;28;20078;-85
2021/08/29 05:13:01;;;;;;;10.30;3.80;;;15.80;99.90;;;;;;5076775;28;20035;-85
2021/08/29 05:15:26;;;;;;;11.48;3.63;;;15.80;99.90;;;;;;5072086;28;20040;-84
2021/08/29 05:17:52;;;;;;;8.70;3.20;;;15.80;99.90;;;;;;5075176;28;20043;-85
2021/08/29 05:20:18;;;;;;;8.80;3.60;;;15.80;99.90;;;;;;5079427;28;20033;-85
2021/08/29 05:22:43;;;;;;;9.18;3.53;;;15.70;99.90;;;;;;5071737;28;20496;-84
2021/08/29 05:25:09;;;;;;;10.75;4.03;;;15.70;99.90;;;;;;5071941;28;20020;-84
2021/08/29 05:27:35;;;;;;;11.45;4.28;;;15.70;99.90;;;;;;5068339;28;20017;-84
2021/08/29 05:30:01;;;;;;;12.60;4.18;;;15.80;99.90;;;;;;5072919;28;20056;-85
2021/08/29 05:32:26;;;;;;;9.63;3.53;;;15.70;99.90;;;;;;5070751;28;20427;-84
2021/08/29 05:34:52;;;;;;;9.52;4.43;;;15.70;99.90;;;;;;5069816;28;20040;-84
2021/08/29 05:37:18;;;;;;;7.43;3.33;;;15.70;99.90;;;;;;5069783;28;20109;-85
2021/08/29 05:39:43;;;;;;;13.02;3.85;;;15.80;99.90;;;;;;5071060;28;20024;-85
2021/08/29 05:42:09;;;;;;;9.85;3.55;;;15.80;99.90;;;;;;5071207;28;20020;-84
2021/08/29 05:44:35;;;;;;;10.52;3.55;;;15.80;99.90;;;;;;5071861;28;20540;-84
2021/08/29 05:47:00;;;;;;;8.68;3.50;;;15.70;99.90;;;;;;5071478;28;20032;-84
2021/08/29 05:49:26;;;;;;;18.73;4.03;;;15.80;99.90;;;;;;5071795;28;20192;-85
2021/08/29 05:51:52;;;;;;;12.45;3.90;;;15.90;99.90;;;;;;5071613;28;20111;-85
2021/08/29 05:54:17;;;;;;;10.48;3.60;;;15.90;99.90;;;;;;5071429;28;20082;-85
2021/08/29 05:56:43;;;;;;;12.68;4.13;;;15.90;99.90;;;;;;5071514;28;20025;-85
2021/08/29 05:59:09;;;;;;;14.88;4.05;;;15.90;99.90;;;;;;5071446;28;20020;-85
2021/08/29 06:01:35;;;;;;;9.73;3.92;;;15.90;99.90;;;;;;5071446;28;20096;-85
2021/08/29 06:04:00;;;;;;;7.78;3.67;;;16.00;99.90;;;;;;5071125;28;20052;-85
2021/08/29 06:06:27;;;;;;;8.18;3.67;;;16.00;99.90;;;;;;5071627;28;20086;-84
2021/08/29 06:08:53;;;;;;;13.82;4.57;;;16.00;99.90;;;;;;5071490;28;20019;-84
2021/08/29 06:11:19;;;;;;;9.95;3.90;;;16.10;99.90;;;;;;5071543;28;20024;-85
2021/08/29 06:13:44;;;;;;;8.75;3.50;;;16.10;99.90;;;;;;5071096;28;20085;-86
2021/08/29 06:16:10;;;;;;;8.93;3.47;;;16.10;99.90;;;;;;5071028;28;20107;-86
2021/08/29 06:18:36;;;;;;;8.52;3.50;;;16.10;99.90;;;;;;5039666;28;20032;-86
2021/08/29 06:21:02;;;;;;;11.10;3.97;;;16.20;99.90;;;;;;5070519;28;20050;-86
2021/08/29 06:23:28;;;;;;;12.88;3.70;;;16.20;99.90;;;;;;5070543;28;20027;-86
2021/08/29 06:25:54;;;;;;;10.63;3.63;;;16.30;99.90;;;;;;5053367;28;20032;-86
2021/08/29 06:28:19;;;;;;;6.82;3.30;;;16.30;99.90;;;;;;5071233;28;20028;-86
2021/08/29 06:30:45;;;;;;;9.45;3.90;;;16.40;99.90;;;;;;5070961;28;20040;-86
2021/08/29 06:33:11;;;;;;;8.25;3.15;;;16.40;99.90;;;;;;5069470;28;20443;-86
2021/08/29 06:35:37;;;;;;;10.80;3.40;;;16.50;99.90;;;;;;5052225;28;20105;-86
2021/08/29 06:38:02;;;;;;;9.73;3.70;;;16.50;99.90;;;;;;5070810;28;20070;-86
2021/08/29 06:40:28;;;;;;;6.70;3.50;;;16.60;99.90;;;;;;5071072;28;20020;-86
2021/08/29 06:42:54;;;;;;;13.23;4.07;;;16.50;99.90;;;;;;5070651;28;20016;-84
2021/08/29 06:45:19;;;;;;;16.17;5.22;;;16.60;99.90;;;;;;5070517;28;20067;-76
2021/08/29 06:47:45;;;;;;;17.80;5.50;;;16.60;99.90;;;;;;5070637;28;20055;-74
2021/08/29 06:50:11;;;;;;;21.00;6.97;;;16.60;99.90;;;;;;5070560;28;20140;-74
2021/08/29 06:52:36;;;;;;;12.77;5.20;;;16.70;99.90;;;;;;5070483;28;20013;-74
2021/08/29 06:55:03;;;;;;;15.43;6.03;;;16.70;99.90;;;;;;5070419;28;20036;-74
2021/08/29 06:57:29;;;;;;;10.50;5.03;;;16.70;99.90;;;;;;5070293;28;20009;-74
2021/08/29 06:59:55;;;;;;;11.43;5.05;;;16.80;99.90;;;;;;5070775;28;20029;-73
2021/08/29 07:02:22;;;;;;;13.00;4.82;;;16.80;99.90;;;;;;5069978;28;20378;-74
2021/08/29 07:04:48;;;;;;;10.57;3.92;;;16.80;99.90;;;;;;5070319;28;20115;-72
2021/08/29 07:07:14;;;;;;;11.70;4.53;;;16.80;99.90;;;;;;5070272;28;20017;-72
2021/08/29 07:09:40;;;;;;;11.77;4.28;;;16.90;99.90;;;;;;5069818;28;20023;-73
2021/08/29 07:12:10;;;;;;;10.52;4.93;;;17.00;99.90;;;;;;5070189;28;20024;-73
2021/08/29 07:14:36;;;;;;;13.27;4.80;;;17.00;99.90;;;;;;5069864;28;20124;-74
2021/08/29 07:18:30;;;;;;;8.80;3.65;;;17.10;99.90;;;;;;5107831;27;20409;-72
2021/08/29 07:20:56;;;;;;;16.02;4.82;;;17.20;99.90;;;;;;5096745;28;20097;-72
2021/08/29 07:23:22;;;;;;;10.57;4.28;;;17.30;99.90;;;;;;5103693;28;20031;-72
2021/08/29 07:25:47;;;;;;;12.63;4.53;;;17.40;99.90;;;;;;5107832;28;20024;-72
2021/08/29 07:28:13;;;;;;;17.42;4.82;;;17.50;99.90;;;;;;5107563;28;20031;-73
2021/08/29 07:30:40;;;;;;;8.90;4.22;;;17.50;99.90;;;;;;5107161;28;20020;-72
2021/08/29 07:33:05;;;;;;;11.77;4.60;;;17.50;99.90;;;;;;5107248;28;20023;-73
2021/08/29 07:35:31;;;;;;;10.75;4.28;;;17.50;99.90;;;;;;5107005;28;20480;-73
2021/08/29 07:37:56;;;;;;;10.32;4.10;;;17.60;99.90;;;;;;5107093;28;20494;-72
2021/08/29 07:40:22;;;;;;;14.15;4.38;;;17.80;99.90;;;;;;5105602;28;20376;-73
2021/08/29 07:42:48;;;;;;;11.73;4.63;;;17.90;99.90;;;;;;5107192;28;20525;-72
2021/08/29 07:45:14;;;;;;;11.55;3.97;;;18.00;99.90;;;;;;5106878;28;20020;-80
2021/08/29 07:47:40;;;;;;;8.95;4.00;;;18.10;99.90;;;;;;5107123;28;20035;-80
2021/08/29 07:50:06;;;;;;;14.40;4.50;;;18.20;99.90;;;;;;5106371;28;20061;-80
2021/08/29 07:52:34;;;;;;;14.30;4.50;;;18.30;99.90;;;;;;5097523;28;20020;-87
2021/08/29 07:54:59;;;;;;;10.48;4.22;;;18.40;99.90;;;;;;5097561;28;20517;-81
2021/08/29 07:57:25;;;;;;;12.15;4.75;;;18.50;99.90;;;;;;5086532;28;20040;-81
2021/08/29 07:59:50;;;;;;;12.52;4.75;;;18.50;99.90;;;;;;5086281;28;20021;-81
2021/08/29 08:02:16;;;;;;;13.10;4.25;;;18.60;99.90;;;;;;5086582;28;20133;-81
2021/08/29 08:04:43;;;;;;;13.70;4.82;;;18.60;99.90;;;;;;5087454;28;20105;-81
2021/08/29 08:07:10;;;;;;;12.13;4.63;;;18.70;99.90;;;;;;5086273;28;20384;-82
2021/08/29 08:09:35;;;;;;;14.95;4.80;;;18.70;99.90;;;;;;5086180;28;20518;-81
2021/08/29 08:12:01;;;;;;;16.35;4.60;;;18.70;99.90;;;;;;5086190;28;20095;-81
2021/08/29 08:14:27;;;;;;;11.48;4.65;;;18.80;99.90;;;;;;5086301;28;20016;-81
2021/08/29 08:16:52;;;;;;;14.07;4.95;;;18.90;99.90;;;;;;5084693;28;20497;-81
2021/08/29 08:19:18;;;;;;;10.23;5.07;;;19.00;99.90;;;;;;5086184;28;20021;-81
2021/08/29 08:21:44;;;;;;;13.00;4.82;;;19.00;99.90;;;;;;5089205;28;20104;-81
2021/08/29 08:24:09;;;;;;;11.02;4.82;;;19.00;99.90;;;;;;5106436;28;20445;-81
2021/08/29 08:26:35;;;;;;;13.23;3.88;;;19.10;99.90;;;;;;5106921;28;20395;-81
2021/08/29 08:29:01;;;;;;;12.27;4.63;;;19.20;99.90;;;;;;5100949;28;20261;-81
2021/08/29 08:31:26;;;;;;;11.02;4.55;;;19.30;99.90;;;;;;5092779;28;20058;-81
2021/08/29 08:33:52;;;;;;;11.50;4.82;;;19.30;99.90;;;;;;5092752;28;20016;-81
2021/08/29 08:36:18;;;;;;;10.77;4.78;;;19.50;99.90;;;;;;5092873;28;20127;-81
2021/08/29 08:38:43;;;;;;;11.75;4.45;;;19.50;99.90;;;;;;5092662;28;20035;-81
2021/08/29 08:41:09;;;;;;;9.00;4.43;;;19.70;99.90;;;;;;5091617;28;20106;-81
2021/08/29 08:43:35;;;;;;;11.15;4.70;;;19.80;99.90;;;;;;5091260;28;20545;-81
2021/08/29 08:46:03;;;;;;;13.05;5.47;;;19.80;99.90;;;;;;5092156;28;20040;-81
2021/08/29 08:48:29;;;;;;;12.68;5.18;;;19.90;99.90;;;;;;5092552;28;20038;-81
2021/08/29 08:50:57;;;;;;;9.90;4.20;;;19.80;99.90;;;;;;5092741;28;20504;-81
2021/08/29 08:53:24;;;;;;;12.18;4.78;;;19.80;99.90;;;;;;5080954;28;20480;-81
2021/08/29 08:55:51;;;;;;;13.50;4.32;;;19.90;99.90;;;;;;5090338;28;20024;-81
2021/08/29 08:58:21;;;;;;;10.95;5.22;;;20.10;99.90;;;;;;5092244;28;20511;-81
2021/08/29 09:00:47;;;;;;;10.75;5.10;;;20.20;99.90;;;;;;5092107;28;20031;-81
2021/08/29 09:03:14;;;;;;;13.40;4.53;;;20.20;99.90;;;;;;5092392;28;20020;-81
2021/08/29 09:05:40;;;;;;;10.75;4.32;;;20.30;99.90;;;;;;5092712;28;20025;-81
2021/08/29 09:08:08;;;;;;;12.05;5.00;;;20.50;99.90;;;;;;5092395;28;20415;-80
2021/08/29 09:10:34;;;;;;;16.33;5.05;;;20.50;99.90;;;;;;5092065;28;20107;-80
2021/08/29 09:13:06;;;;;;;13.32;4.93;;;20.60;99.90;;;;;;5091674;28;20044;-81
2021/08/29 09:15:32;;;;;;;10.98;4.63;;;20.70;99.90;;;;;;5090650;28;20466;-81
2021/08/29 09:17:59;;;;;;;10.23;4.93;;;20.80;99.90;;;;;;5091762;28;20051;-81
2021/08/29 09:20:39;;;;;;;9.95;5.22;;;20.90;99.90;;;;;;5085343;28;20048;-80
2021/08/29 09:23:10;;;;;;;10.20;5.32;;;20.90;99.90;;;;;;5085741;28;20024;-81
2021/08/29 09:25:41;;;;;;;12.23;5.50;;;20.80;99.90;;;;;;5092235;28;20376;-81
2021/08/29 09:28:12;;;;;;;11.77;4.90;;;20.90;99.90;;;;;;5090677;28;20040;-82
2021/08/29 09:30:45;;;;;;;9.35;4.93;;;21.00;99.90;;;;;;5064078;28;20020;-81
2021/08/29 09:33:11;;;;;;;9.35;5.10;;;21.10;99.90;;;;;;5091679;28;20035;-81
2021/08/29 09:35:37;;;;;;;15.18;5.35;;;21.10;99.90;;;;;;5091663;28;20135;-81
2021/08/29 09:38:05;;;;;;;12.85;5.32;;;21.20;99.90;;;;;;5091444;28;20158;-82
2021/08/29 09:40:34;;;;;;;13.38;5.25;;;21.30;99.90;;;;;;5090346;28;20488;-74
2021/08/29 09:43:02;;;;;;;11.63;5.53;;;21.40;99.90;;;;;;5091092;28;20531;-75
2021/08/29 09:45:36;;;;;;;10.48;5.38;;;21.40;99.90;;;;;;5091133;28;20012;-75
2021/08/29 09:48:08;;;;;;;13.48;6.22;;;21.50;99.90;;;;;;5090911;28;20070;-74
2021/08/29 09:50:36;;;;;;;15.07;5.50;;;21.40;99.90;;;;;;5090796;28;20024;-74
2021/08/29 09:53:11;;;;;;;11.88;5.05;;;21.40;99.90;;;;;;5091261;28;20043;-75
2021/08/29 09:55:41;;;;;;;11.85;4.65;;;21.40;99.90;;;;;;5090885;28;20020;-75
2021/08/29 09:58:25;;;;;;;13.07;5.72;;;21.50;99.90;;;;;;5090995;28;20042;-75
2021/08/29 10:01:13;;;;;;;9.95;5.30;;;21.60;99.90;;;;;;5090970;28;20012;-77
2021/08/29 10:03:59;;;;;;;9.07;4.47;;;21.80;99.90;;;;;;5090860;28;20055;-75
2021/08/29 10:06:26;;;;;;;11.18;5.07;;;21.90;99.90;;;;;;5090424;28;20042;-75
2021/08/29 10:09:00;;;;;;;11.32;4.57;;;22.00;99.90;;;;;;5089958;28;20024;-75
2021/08/29 10:11:27;;;;;;;14.68;5.43;;;22.20;99.90;;;;;;5081911;28;20031;-76
2021/08/29 10:13:54;;;;;;;14.20;4.93;;;22.20;99.90;;;;;;5069910;28;20393;-76
2021/08/29 10:16:22;;;;;;;11.05;5.38;;;21.90;99.90;;;;;;5068384;28;20667;-75
2021/08/29 10:18:51;;;;;;;9.45;5.28;;;21.70;99.90;;;;;;5070253;28;20028;-76
2021/08/29 10:21:19;;;;;;;9.50;5.57;;;21.50;99.90;;;;;;5070052;28;20055;-76
2021/08/29 10:23:49;;;;;;;12.38;5.57;;;21.50;99.90;;;;;;5089980;28;20020;-75
2021/08/29 10:26:18;;;;;;;13.15;5.18;;;21.50;99.90;;;;;;5090384;28;20046;-75
2021/08/29 10:28:47;;;;;;;9.35;4.80;;;21.60;99.90;;;;;;5090289;28;20036;-76
2021/08/29 10:31:17;;;;;;;10.05;5.40;;;21.70;99.90;;;;;;5089097;28;20024;-76
2021/08/29 10:33:49;;;;;;;14.50;5.05;;;21.80;99.90;;;;;;5090017;28;20046;-75
2021/08/29 10:36:20;;;;;;;9.27;4.38;;;22.00;99.90;;;;;;5090010;28;20019;-74
2021/08/29 10:38:47;;;;;;;10.00;4.57;;;22.30;99.90;;;;;;5090147;28;20492;-75
2021/08/29 10:41:20;;;;;;;8.63;4.55;;;22.60;99.90;;;;;;5090314;28;20016;-74
2021/08/29 10:43:49;;;;;;;10.55;4.85;;;22.80;99.90;;;;;;5090064;28;20020;-74
2021/08/29 10:46:16;;;;;;;11.80;5.47;;;22.80;99.90;;;;;;5089888;28;20020;-74
2021/08/29 10:48:48;;;;;;;8.68;4.50;;;22.80;99.90;;;;;;5089938;28;20077;-74
2021/08/29 10:51:17;;;;;;;9.45;4.60;;;22.90;99.90;;;;;;5089760;28;20012;-74
2021/08/29 10:53:54;;;;;;;8.40;4.30;;;23.10;99.90;;;;;;5089873;28;20054;-74
2021/08/29 10:56:22;;;;;;;9.75;4.57;;;23.30;99.90;;;;;;5089883;28;20020;-74
2021/08/29 10:59:09;;;;;;;8.82;4.78;;;23.40;99.90;;;;;;5089825;28;20039;-74
2021/08/29 11:01:36;;;;;;;8.00;4.20;;;23.60;99.90;;;;;;5089784;28;20155;-74
2021/08/29 11:04:17;;;;;;;12.38;4.72;;;23.80;99.90;;;;;;5089766;28;20574;-74
2021/08/29 11:06:46;;;;;;;12.60;5.53;;;23.90;99.70;;;;;;5090183;28;20455;-75
2021/08/29 11:09:34;;;;;;;7.82;4.80;;;24.00;98.80;;;;;;5089878;28;20039;-73
2021/08/29 11:12:15;;;;;;;22.25;11.93;;;24.10;97.80;;;;;;5089918;28;20108;-73
2021/08/29 11:14:49;;;;;;;9.55;4.63;;;24.30;97.80;;;;;;5089630;28;20016;-74
2021/08/29 11:17:15;;;;;;;;;;;24.60;97.40;;;;;;5082258;28;20040;-74
2021/08/29 11:19:43;;;;;;;8.30;4.40;;;24.40;97.00;;;;;;5083999;28;19991;-76
2021/08/29 11:22:09;;;;;;;9.90;4.35;;;24.10;97.60;;;;;;5084885;28;20182;-74
2021/08/29 11:24:53;;;;;;;9.38;4.28;;;24.10;97.20;;;;;;5080852;28;20475;-74
2021/08/29 11:27:48;;;;;;;9.63;4.43;;;24.40;96.70;;;;;;5080067;28;20035;-75
2021/08/29 11:30:24;;;;;;;11.20;4.28;;;24.70;95.80;;;;;;5067897;28;20029;-75
2021/08/29 11:32:59;;;;;;;7.85;4.10;;;24.90;95.40;;;;;;5069246;28;20099;-78
2021/08/29 11:35:33;;;;;;;8.75;4.15;;;25.00;95.90;;;;;;5071643;28;20024;-76
2021/08/29 11:38:02;;;;;;;9.30;4.75;;;25.00;95.20;;;;;;5089484;28;20032;-79
2021/08/29 11:40:53;;;;;;;13.10;4.78;;;24.60;95.50;;;;;;5089887;28;20376;-76
2021/08/29 11:43:32;;;;;;;10.82;4.07;;;24.20;95.90;;;;;;5089557;28;20090;-75
2021/08/29 11:46:09;;;;;;;9.57;4.10;;;24.20;97.00;;;;;;5089287;28;20062;-75
2021/08/29 11:48:36;;;;;;;9.90;3.53;;;24.50;95.70;;;;;;5089473;28;20090;-75
2021/08/29 11:51:04;;;;;;;9.70;4.03;;;24.90;95.50;;;;;;5084790;28;20221;-75
2021/08/29 11:53:50;;;;;;;8.07;3.47;;;25.20;95.80;;;;;;5080156;28;20031;-75
2021/08/29 11:56:17;;;;;;;8.55;4.05;;;25.30;94.80;;;;;;5089242;28;20027;-75
2021/08/29 11:58:45;;;;;;;9.75;4.30;;;25.10;94.90;;;;;;5089377;28;20028;-75
2021/08/29 12:01:11;;;;;;;9.85;4.05;;;25.10;94.60;;;;;;5089070;28;20027;-75
2021/08/29 12:03:38;;;;;;;9.15;4.00;;;25.20;94.20;;;;;;5090373;28;20112;-75
2021/08/29 12:06:07;;;;;;;8.77;3.42;;;25.50;93.40;;;;;;5093004;28;20023;-79
2021/08/29 12:08:58;;;;;;;7.03;3.80;;;25.60;93.70;;;;;;5093138;28;20028;-75
2021/08/29 12:11:26;;;;;;;8.98;3.85;;;25.40;93.20;;;;;;5092815;28;20369;-75
2021/08/29 12:13:53;;;;;;;7.32;3.92;;;25.20;93.10;;;;;;5092880;28;20020;-74
2021/08/29 12:16:18;;;;;;;8.10;3.58;;;25.20;93.30;;;;;;5092440;28;20381;-74
2021/08/29 12:18:45;;;;;;;5.63;3.80;;;25.50;92.80;;;;;;5092973;28;20026;-74
2021/08/29 12:21:11;;;;;;;9.32;4.05;;;26.00;92.70;;;;;;5092702;28;20107;-75
2021/08/29 12:23:38;;;;;;;7.05;3.70;;;26.30;92.00;;;;;;5092803;28;20107;-74
2021/08/29 12:26:09;;;;;;;7.55;3.25;;;26.40;91.50;;;;;;5080534;28;20426;-77
2021/08/29 12:28:36;;;;;;;7.15;3.53;;;26.50;91.10;;;;;;5091314;28;20008;-75
2021/08/29 12:31:04;;;;;;;7.88;3.60;;;26.60;90.70;;;;;;5092646;28;20387;-75
2021/08/29 12:33:30;;;;;;;7.97;3.60;;;26.50;88.70;;;;;;5092546;28;20008;-75
2021/08/29 12:35:57;;;;;;;6.15;3.20;;;26.50;89.10;;;;;;5086831;28;20392;-74
2021/08/29 12:38:24;;;;;;;8.73;3.75;;;26.80;87.80;;;;;;5085933;28;20101;-75
2021/08/29 12:40:51;;;;;;;9.63;3.80;;;27.10;87.70;;;;;;5084741;28;20016;-75
2021/08/29 12:43:17;;;;;;;6.47;3.80;;;27.30;87.80;;;;;;5087943;28;20043;-78
2021/08/29 12:45:43;;;;;;;7.60;3.58;;;27.10;86.00;;;;;;5084744;28;20262;-75
2021/08/29 12:48:09;;;;;;;8.88;4.10;;;26.40;86.70;;;;;;5087819;28;20031;-75